Rollo, Illinois
Current Conditions -  °F | °C
As of 4:35 PM on Friday 31 Oct 2014 (Local Time) from KVYS Reporting Station
Scattered Clouds Scattered Clouds  
Wind Chill: 31°   Ceiling: Unl
Heat Index: 41°   Visibility: 10mi
Dew Point: 20°   Wind: 23mph
Humidity: 43%   Direction: 360°N
Pressure: 30.31"   Gusts: 32mph
Location:  41.5869°N, 88.887°W
Report Text: KVYS 312135Z AUTO 36020G28KT 10SM SCT048 05/M07 A3031 RMK AO2 T00501067
Loading
Personal Weather Stations






























Interactive Weather Map New forecast layout! Learn more

10-Day Weather Forecast

Advertisements
Track Severe Weather on mobile